createdAt,value
2023-02-03T00:01:18.055Z,5.05
2023-02-03T00:02:49.801Z,4.94
2023-02-03T00:04:21.494Z,4.93
2023-02-03T00:05:54.109Z,4.82
2023-02-03T00:07:25.821Z,4.92
2023-02-03T00:08:59.479Z,4.87
2023-02-03T00:10:31.171Z,4.91
2023-02-03T00:12:02.748Z,5.05
2023-02-03T00:13:35.269Z,5.03
2023-02-03T00:15:07.410Z,4.94
2023-02-03T00:16:39.113Z,4.87
2023-02-03T00:18:10.838Z,4.84
2023-02-03T00:19:42.499Z,4.83
2023-02-03T00:21:15.206Z,4.80
2023-02-03T00:22:46.835Z,4.77
2023-02-03T00:24:20.398Z,4.76
2023-02-03T00:25:52.564Z,4.82
2023-02-03T00:27:24.414Z,4.77
2023-02-03T00:28:59.771Z,4.82
2023-02-03T00:30:33.866Z,4.75
2023-02-03T00:32:05.710Z,4.87
2023-02-03T00:33:39.063Z,4.84
2023-02-03T00:35:10.660Z,4.76
2023-02-03T00:36:43.122Z,4.75
2023-02-03T00:38:14.875Z,4.82
2023-02-03T00:39:46.803Z,4.72
2023-02-03T00:41:19.485Z,4.69
2023-02-03T00:42:52.500Z,4.70
2023-02-03T00:44:24.193Z,4.85
2023-02-03T00:45:56.204Z,4.75
2023-02-03T00:47:27.905Z,4.71
2023-02-03T00:48:59.522Z,4.75
2023-02-03T00:50:31.130Z,4.70
2023-02-03T00:52:02.933Z,4.74
2023-02-03T00:53:34.625Z,4.67
2023-02-03T00:55:07.372Z,4.66
2023-02-03T00:56:39.576Z,4.76
2023-02-03T00:58:11.310Z,4.79
2023-02-03T00:59:42.939Z,4.70
2023-02-03T01:01:14.658Z,4.76
2023-02-03T01:02:47.189Z,4.78
2023-02-03T01:04:18.802Z,4.68
2023-02-03T01:05:50.581Z,4.66
2023-02-03T01:07:22.298Z,4.74
2023-02-03T01:08:54.634Z,4.83
2023-02-03T01:10:26.525Z,4.71
2023-02-03T01:11:58.382Z,4.71
2023-02-03T01:13:30.039Z,4.80
2023-02-03T01:15:01.628Z,4.78
2023-02-03T01:16:36.349Z,4.81
2023-02-03T01:18:08.184Z,4.84
2023-02-03T01:19:39.779Z,4.75
2023-02-03T01:21:24.155Z,4.70
2023-02-03T01:22:55.822Z,4.80
2023-02-03T01:24:30.558Z,4.85
2023-02-03T01:26:04.498Z,4.87
2023-02-03T01:27:36.207Z,4.84
2023-02-03T01:29:08.640Z,4.86
2023-02-03T01:30:40.487Z,4.85
2023-02-03T01:32:12.263Z,4.91
2023-02-03T01:33:48.119Z,4.94
2023-02-03T01:35:19.872Z,4.92
2023-02-03T01:36:52.004Z,4.78
2023-02-03T01:38:23.576Z,4.80
2023-02-03T01:39:55.222Z,4.72
2023-02-03T01:41:31.045Z,4.78
2023-02-03T01:43:02.801Z,4.84
2023-02-03T01:44:43.751Z,4.75
2023-02-03T01:46:35.592Z,4.76
2023-02-03T01:48:08.396Z,4.91
2023-02-03T01:49:42.873Z,4.90
2023-02-03T01:51:14.828Z,4.90
2023-02-03T01:52:51.394Z,4.96
2023-02-03T01:54:28.055Z,4.89
2023-02-03T01:56:01.793Z,4.98
2023-02-03T01:57:38.271Z,4.91
2023-02-03T01:59:10.111Z,4.92
2023-02-03T02:00:43.143Z,4.87
2023-02-03T02:02:14.989Z,4.85
2023-02-03T02:03:54.325Z,4.87
2023-02-03T02:05:32.522Z,4.90
2023-02-03T02:07:04.948Z,4.89
2023-02-03T02:08:38.477Z,4.86
2023-02-03T02:10:10.958Z,4.97
2023-02-03T02:11:42.681Z,4.98
2023-02-03T02:13:15.845Z,4.94
2023-02-03T02:14:50.354Z,5.02
2023-02-03T02:16:30.999Z,4.99
2023-02-03T02:18:21.294Z,4.92
2023-02-03T02:20:30.847Z,5.01
2023-02-03T02:22:05.159Z,4.95
2023-02-03T02:23:52.770Z,5.02
2023-02-03T02:25:34.934Z,4.96
2023-02-03T02:27:31.363Z,5.04
2023-02-03T02:29:47.392Z,4.88
2023-02-03T02:31:39.650Z,4.86
2023-02-03T02:33:17.469Z,4.84
2023-02-03T02:35:07.520Z,4.96
2023-02-03T02:37:03.765Z,5.01
2023-02-03T02:38:54.674Z,4.86
2023-02-03T02:40:29.102Z,4.74
2023-02-03T02:42:15.929Z,4.78
2023-02-03T02:44:12.724Z,4.79
2023-02-03T02:45:50.386Z,4.73
2023-02-03T02:47:23.987Z,4.91
2023-02-03T02:49:21.145Z,4.91
2023-02-03T02:50:57.290Z,4.92
2023-02-03T02:52:31.708Z,4.90
2023-02-03T02:54:09.192Z,4.97
2023-02-03T02:55:43.148Z,4.96
2023-02-03T02:57:18.655Z,4.92
2023-02-03T02:58:51.850Z,5.00
2023-02-03T03:00:23.965Z,4.91
2023-02-03T03:01:55.659Z,4.94
2023-02-03T03:03:27.286Z,4.84
2023-02-03T03:04:59.032Z,4.97
2023-02-03T03:06:45.757Z,4.91
2023-02-03T03:08:21.200Z,4.84
2023-02-03T03:10:02.548Z,4.86
2023-02-03T03:11:50.135Z,4.85
2023-02-03T03:13:35.334Z,4.82
2023-02-03T03:15:11.121Z,4.86
2023-02-03T03:16:47.986Z,4.82
2023-02-03T03:18:27.625Z,4.85
2023-02-03T03:20:05.148Z,4.86
2023-02-03T03:21:43.516Z,4.95
2023-02-03T03:23:25.128Z,4.98
2023-02-03T03:25:14.913Z,5.03
2023-02-03T03:26:54.521Z,4.99
2023-02-03T03:28:35.525Z,4.90
2023-02-03T03:30:15.864Z,4.90
2023-02-03T03:31:48.438Z,4.94
2023-02-03T03:33:21.347Z,4.95
2023-02-03T03:34:53.100Z,4.97
2023-02-03T03:36:27.610Z,4.98
2023-02-03T03:38:23.627Z,5.04
2023-02-03T03:39:58.583Z,4.97
2023-02-03T03:42:02.477Z,4.97
2023-02-03T03:43:40.671Z,5.02
2023-02-03T03:45:35.789Z,5.06
2023-02-03T03:47:12.774Z,5.09
2023-02-03T03:48:55.865Z,5.05
2023-02-03T03:50:37.644Z,5.03
2023-02-03T03:52:12.446Z,4.98
2023-02-03T03:53:47.225Z,5.01
2023-02-03T03:55:20.625Z,4.97
2023-02-03T03:57:02.472Z,5.01
2023-02-03T03:58:37.217Z,4.93
2023-02-03T04:00:11.403Z,4.88
2023-02-03T04:01:46.523Z,4.92
2023-02-03T04:03:23.424Z,4.93
2023-02-03T04:04:56.500Z,5.02
2023-02-03T04:06:28.368Z,5.10
2023-02-03T04:08:00.993Z,5.07
2023-02-03T04:09:32.790Z,5.02
2023-02-03T04:11:04.550Z,5.03
2023-02-03T04:12:36.232Z,5.09
2023-02-03T04:14:07.825Z,5.06
2023-02-03T04:15:39.484Z,5.10
2023-02-03T04:17:11.070Z,5.13
2023-02-03T04:18:42.628Z,5.09
2023-02-03T04:20:14.626Z,5.11
2023-02-03T04:21:46.296Z,5.14
2023-02-03T04:23:18.051Z,5.13
2023-02-03T04:24:49.615Z,5.10
2023-02-03T04:26:21.152Z,5.09
2023-02-03T04:27:52.974Z,5.05
2023-02-03T04:29:24.548Z,4.99
2023-02-03T04:30:56.250Z,5.11
2023-02-03T04:32:27.880Z,5.14
2023-02-03T04:33:59.504Z,5.13
2023-02-03T04:35:31.099Z,5.12
2023-02-03T04:37:02.715Z,5.02
2023-02-03T04:38:34.724Z,5.02
2023-02-03T04:40:07.434Z,4.98
2023-02-03T04:41:39.086Z,4.98
2023-02-03T04:43:10.992Z,5.04
2023-02-03T04:44:42.595Z,5.04
2023-02-03T04:46:14.342Z,5.02
2023-02-03T04:47:53.988Z,4.96
2023-02-03T04:49:25.799Z,5.04
2023-02-03T04:51:02.831Z,5.04
2023-02-03T04:52:34.466Z,5.04
2023-02-03T04:54:06.207Z,5.03
2023-02-03T04:55:37.799Z,5.02
2023-02-03T04:57:09.441Z,5.07
2023-02-03T04:58:41.019Z,5.02
2023-02-03T05:00:13.341Z,5.11
2023-02-03T05:01:44.953Z,5.06
2023-02-03T05:03:16.551Z,5.16
2023-02-03T05:04:48.108Z,5.10
2023-02-03T05:06:27.215Z,5.07
2023-02-03T05:07:58.799Z,4.99
2023-02-03T05:09:30.501Z,5.03
2023-02-03T05:11:02.514Z,5.05
2023-02-03T05:12:34.192Z,5.17
2023-02-03T05:14:05.839Z,5.01
2023-02-03T05:15:37.496Z,5.08
2023-02-03T05:17:09.154Z,5.00
2023-02-03T05:18:40.861Z,5.09
2023-02-03T05:20:12.508Z,5.02
2023-02-03T05:21:44.172Z,5.00
2023-02-03T05:23:15.783Z,5.03
2023-02-03T05:24:47.470Z,5.00
2023-02-03T05:26:19.433Z,4.86
2023-02-03T05:27:51.050Z,4.93
2023-02-03T05:29:22.607Z,4.91
2023-02-03T05:30:54.292Z,5.06
2023-02-03T05:32:25.965Z,5.06
2023-02-03T05:33:57.587Z,4.91
2023-02-03T05:35:29.104Z,4.80
2023-02-03T05:37:00.984Z,4.80
2023-02-03T05:38:32.583Z,4.93
2023-02-03T05:40:23.198Z,4.90
2023-02-03T05:41:57.206Z,4.84
2023-02-03T05:43:29.792Z,4.86
2023-02-03T05:45:01.411Z,4.82
2023-02-03T05:46:33.121Z,4.90
2023-02-03T05:48:04.898Z,4.99
2023-02-03T05:49:36.532Z,4.99
2023-02-03T05:51:08.101Z,4.92
2023-02-03T05:52:39.725Z,4.86
2023-02-03T05:54:11.680Z,4.80
2023-02-03T05:55:43.352Z,4.91
2023-02-03T05:57:14.974Z,4.90
2023-02-03T05:58:46.585Z,4.91
2023-02-03T06:00:18.623Z,4.83
2023-02-03T06:01:50.251Z,5.03
2023-02-03T06:03:22.035Z,4.92
2023-02-03T06:04:53.698Z,4.85
2023-02-03T06:06:25.436Z,4.89
2023-02-03T06:07:57.352Z,4.86
2023-02-03T06:09:28.920Z,4.87
2023-02-03T06:11:03.272Z,4.96
2023-02-03T06:12:34.901Z,4.92
2023-02-03T06:14:06.566Z,4.95
2023-02-03T06:15:38.234Z,4.90
2023-02-03T06:17:09.872Z,4.90
2023-02-03T06:18:41.427Z,4.89
2023-02-03T06:20:15.297Z,4.83
2023-02-03T06:21:46.956Z,4.74
2023-02-03T06:23:19.266Z,4.75
2023-02-03T06:24:50.875Z,4.79
2023-02-03T06:26:22.644Z,4.84
2023-02-03T06:27:54.297Z,4.84
2023-02-03T06:29:25.963Z,4.86
2023-02-03T06:30:57.653Z,4.92
2023-02-03T06:32:29.399Z,4.82
2023-02-03T06:34:02.623Z,4.82
2023-02-03T06:35:34.451Z,4.83
2023-02-03T06:37:06.841Z,4.80
2023-02-03T06:38:38.561Z,4.88
2023-02-03T06:40:11.376Z,4.87
2023-02-03T06:41:43.021Z,4.78
2023-02-03T06:43:15.269Z,4.78
2023-02-03T06:44:46.829Z,4.77
2023-02-03T06:46:18.593Z,4.93
2023-02-03T06:47:50.489Z,4.84
2023-02-03T06:49:22.260Z,4.83
2023-02-03T06:50:53.857Z,4.84
2023-02-03T06:52:25.511Z,4.83
2023-02-03T06:53:58.655Z,4.93
2023-02-03T06:55:30.352Z,4.88
2023-02-03T06:57:02.050Z,4.83
2023-02-03T06:58:33.613Z,4.81
2023-02-03T07:00:05.623Z,4.90
2023-02-03T07:01:37.896Z,4.80
2023-02-03T07:03:09.580Z,4.80
2023-02-03T07:04:41.271Z,4.91
2023-02-03T07:06:14.881Z,4.92
2023-02-03T07:07:46.505Z,4.88
2023-02-03T07:09:18.194Z,4.82
2023-02-03T07:10:54.715Z,4.82
2023-02-03T07:12:26.389Z,4.82
2023-02-03T07:13:58.352Z,4.84
2023-02-03T07:15:30.025Z,4.84
2023-02-03T07:17:03.094Z,4.86
2023-02-03T07:18:49.961Z,4.90
2023-02-03T07:20:23.846Z,4.92
2023-02-03T07:21:55.549Z,4.93
2023-02-03T07:23:27.277Z,4.95
2023-02-03T07:24:58.871Z,4.98
2023-02-03T07:26:30.827Z,4.92
2023-02-03T07:28:02.585Z,5.03
2023-02-03T07:29:34.215Z,5.03
2023-02-03T07:31:08.177Z,5.01
2023-02-03T07:32:39.880Z,5.09
2023-02-03T07:34:11.643Z,5.02
2023-02-03T07:35:43.438Z,5.15
2023-02-03T07:37:14.992Z,5.11
2023-02-03T07:38:46.624Z,5.15
2023-02-03T07:40:18.809Z,5.15
2023-02-03T07:41:50.462Z,5.23
2023-02-03T07:43:22.734Z,5.26
2023-02-03T07:44:54.324Z,5.28
2023-02-03T07:46:25.981Z,5.28
2023-02-03T07:47:57.677Z,5.31
2023-02-03T07:49:29.298Z,5.39
2023-02-03T07:51:01.018Z,5.32
2023-02-03T07:52:33.029Z,5.32
2023-02-03T07:54:04.966Z,5.41
2023-02-03T07:55:39.141Z,5.46
2023-02-03T07:57:10.817Z,5.43
2023-02-03T07:58:42.954Z,5.40
2023-02-03T08:00:16.780Z,5.42
2023-02-03T08:01:48.862Z,5.46
2023-02-03T08:03:20.825Z,5.47
2023-02-03T08:04:52.732Z,5.43
2023-02-03T08:06:24.414Z,5.41
2023-02-03T08:07:57.055Z,5.36
2023-02-03T08:09:28.881Z,5.42
2023-02-03T08:11:00.925Z,5.41
2023-02-03T08:12:32.619Z,5.48
2023-02-03T08:14:04.459Z,5.42
2023-02-03T08:15:36.255Z,5.36
2023-02-03T08:17:08.395Z,5.39
2023-02-03T08:18:40.266Z,5.33
2023-02-03T08:20:12.765Z,5.35
2023-02-03T08:21:44.534Z,5.34
2023-02-03T08:23:16.537Z,5.53
2023-02-03T08:24:48.754Z,5.44
2023-02-03T08:26:20.815Z,5.48
2023-02-03T08:27:55.521Z,5.58
2023-02-03T08:29:27.555Z,5.59
2023-02-03T08:30:59.480Z,5.65
2023-02-03T08:32:32.992Z,5.65
2023-02-03T08:34:05.824Z,5.67
2023-02-03T08:35:38.099Z,5.59
2023-02-03T08:37:11.577Z,5.61
2023-02-03T08:38:43.243Z,5.63
2023-02-03T08:40:15.440Z,5.68
2023-02-03T08:41:47.356Z,5.66
2023-02-03T08:43:18.997Z,5.66
2023-02-03T08:44:50.736Z,5.77
2023-02-03T08:46:22.463Z,5.71
2023-02-03T08:47:54.099Z,5.69
2023-02-03T08:49:28.277Z,5.68
2023-02-03T08:51:00.143Z,5.62
2023-02-03T08:52:31.752Z,5.70
2023-02-03T08:54:03.657Z,5.72
2023-02-03T08:55:39.223Z,5.63
2023-02-03T08:57:11.430Z,5.71
2023-02-03T08:58:43.088Z,5.71
2023-02-03T09:00:15.383Z,5.87
2023-02-03T09:01:48.458Z,5.95
2023-02-03T09:03:20.213Z,5.86
2023-02-03T09:04:52.326Z,5.96
2023-02-03T09:06:26.202Z,5.94
2023-02-03T09:07:58.350Z,5.88
2023-02-03T09:09:31.111Z,5.81
2023-02-03T09:11:02.974Z,5.97
2023-02-03T09:12:34.642Z,5.98
2023-02-03T09:14:07.478Z,5.94
2023-02-03T09:15:39.135Z,6.04
2023-02-03T09:17:10.731Z,6.22
2023-02-03T09:18:42.380Z,6.07
2023-02-03T09:20:15.100Z,6.17
2023-02-03T09:21:49.104Z,6.11
2023-02-03T09:23:20.855Z,6.16
2023-02-03T09:24:52.461Z,6.23
2023-02-03T09:26:24.090Z,6.42
2023-02-03T09:27:55.735Z,6.53
2023-02-03T09:29:27.593Z,6.39
2023-02-03T09:31:07.112Z,6.40
2023-02-03T09:32:38.797Z,6.53
2023-02-03T09:34:10.457Z,6.72
2023-02-03T09:35:42.083Z,6.65
2023-02-03T09:37:13.982Z,6.74
2023-02-03T09:38:45.721Z,7.05
2023-02-03T09:40:30.459Z,6.99
2023-02-03T09:42:24.383Z,6.70
2023-02-03T09:44:26.521Z,6.68
2023-02-03T09:46:18.279Z,6.76
2023-02-03T09:47:54.196Z,6.63
2023-02-03T09:49:33.852Z,6.66
2023-02-03T09:51:09.960Z,6.64
2023-02-03T09:52:42.092Z,6.61
2023-02-03T09:54:20.835Z,6.56
2023-02-03T09:55:53.228Z,6.68
2023-02-03T09:57:27.721Z,6.80
2023-02-03T09:58:59.837Z,6.88
2023-02-03T10:00:40.354Z,7.25
2023-02-03T10:02:35.023Z,7.10
2023-02-03T10:04:18.834Z,7.46
2023-02-03T10:05:56.591Z,7.47
2023-02-03T10:07:51.241Z,7.55
2023-02-03T10:09:32.740Z,7.61
2023-02-03T10:11:11.032Z,7.23
2023-02-03T10:13:01.452Z,7.38
2023-02-03T10:14:39.389Z,7.43
2023-02-03T10:16:20.355Z,7.40
2023-02-03T10:18:00.241Z,7.58
2023-02-03T10:19:43.711Z,7.56
2023-02-03T10:21:31.319Z,7.72
2023-02-03T10:23:10.501Z,7.69
2023-02-03T10:24:52.272Z,7.84
2023-02-03T10:26:28.348Z,7.89
2023-02-03T10:28:03.719Z,7.78
2023-02-03T10:29:42.627Z,7.69
2023-02-03T10:31:23.748Z,7.87
2023-02-03T10:33:00.632Z,7.85
2023-02-03T10:34:32.366Z,8.01
2023-02-03T10:36:30.112Z,8.29
2023-02-03T10:38:01.885Z,8.42
2023-02-03T10:39:39.175Z,8.43
2023-02-03T10:41:11.299Z,8.32
2023-02-03T10:43:04.905Z,7.97
2023-02-03T10:44:39.730Z,7.88
2023-02-03T10:46:11.493Z,7.79
2023-02-03T10:47:48.589Z,7.65
2023-02-03T10:49:21.782Z,7.71
2023-02-03T10:50:55.586Z,7.67
2023-02-03T10:52:36.325Z,7.82
2023-02-03T10:54:36.195Z,7.84
2023-02-03T10:56:12.466Z,7.82
2023-02-03T10:57:44.076Z,7.75
2023-02-03T10:59:38.074Z,7.61
2023-02-03T11:01:15.312Z,7.60
2023-02-03T11:03:06.261Z,7.60
2023-02-03T11:04:37.971Z,7.52
2023-02-03T11:06:15.228Z,7.62
2023-02-03T11:07:47.630Z,7.67
2023-02-03T11:09:33.179Z,7.41
2023-02-03T11:11:08.519Z,7.59
2023-02-03T11:12:40.172Z,7.41
2023-02-03T11:14:16.707Z,7.57
2023-02-03T11:16:01.953Z,7.96
2023-02-03T11:17:36.504Z,8.17
2023-02-03T11:19:20.533Z,8.03
2023-02-03T11:20:52.329Z,8.10
2023-02-03T11:22:38.947Z,8.54
2023-02-03T11:24:31.744Z,8.80
2023-02-03T11:26:15.081Z,8.79
2023-02-03T11:27:47.312Z,8.59
2023-02-03T11:29:24.389Z,8.39
2023-02-03T11:30:57.900Z,8.08
2023-02-03T11:32:35.517Z,7.91
2023-02-03T11:34:16.946Z,7.81
2023-02-03T11:35:57.879Z,7.71
2023-02-03T11:37:32.319Z,7.54
2023-02-03T11:39:25.457Z,7.63
2023-02-03T11:41:01.341Z,7.57
2023-02-03T11:42:34.768Z,7.44
2023-02-03T11:44:24.321Z,7.40
2023-02-03T11:46:07.752Z,7.22
2023-02-03T11:47:45.813Z,7.30
2023-02-03T11:49:31.594Z,7.38
2023-02-03T11:51:18.118Z,7.25
2023-02-03T11:53:03.601Z,7.20
2023-02-03T11:54:53.694Z,7.15
2023-02-03T11:56:31.310Z,7.18
2023-02-03T11:58:39.939Z,7.21
2023-02-03T12:00:27.468Z,7.05
2023-02-03T12:02:25.639Z,7.13
2023-02-03T12:04:24.591Z,7.06
2023-02-03T12:06:34.531Z,7.08
2023-02-03T12:08:09.754Z,7.14
2023-02-03T12:10:01.240Z,7.13
2023-02-03T12:11:45.259Z,7.13
2023-02-03T12:13:16.903Z,7.04
2023-02-03T12:15:25.519Z,6.90
2023-02-03T12:17:15.751Z,7.05
2023-02-03T12:19:14.048Z,7.12
2023-02-03T12:21:07.981Z,7.10
2023-02-03T12:23:04.485Z,7.06
2023-02-03T12:24:45.444Z,7.00
2023-02-03T12:26:39.029Z,7.01
2023-02-03T12:28:33.815Z,6.98
2023-02-03T12:30:10.642Z,7.00
2023-02-03T12:32:26.912Z,6.99
2023-02-03T12:34:20.111Z,6.89
2023-02-03T12:36:14.979Z,6.95
2023-02-03T12:37:54.083Z,7.03
2023-02-03T12:39:30.876Z,7.02
2023-02-03T12:41:12.533Z,7.15
2023-02-03T12:42:50.896Z,7.12
2023-02-03T12:44:31.326Z,7.14
2023-02-03T12:46:22.650Z,7.15
2023-02-03T12:48:13.916Z,7.09
2023-02-03T12:49:58.224Z,7.18
2023-02-03T12:51:29.884Z,7.21
2023-02-03T12:53:09.709Z,7.15
2023-02-03T12:54:41.224Z,7.12
2023-02-03T12:56:16.503Z,7.19
2023-02-03T12:58:06.131Z,7.15
2023-02-03T12:59:41.857Z,7.11
2023-02-03T13:01:13.606Z,7.04
2023-02-03T13:03:03.852Z,7.14
2023-02-03T13:04:49.565Z,7.09
2023-02-03T13:06:49.947Z,6.94
2023-02-03T13:08:43.365Z,6.85
2023-02-03T13:10:43.948Z,6.95
2023-02-03T13:12:37.074Z,6.85
2023-02-03T13:14:22.015Z,6.82
2023-02-03T13:15:56.448Z,6.80
2023-02-03T13:17:34.626Z,6.82
2023-02-03T13:19:15.143Z,6.74
2023-02-03T13:20:47.105Z,6.83
2023-02-03T13:22:23.637Z,6.81
2023-02-03T13:23:56.041Z,6.80
2023-02-03T13:25:53.997Z,6.81
2023-02-03T13:27:40.775Z,6.77
2023-02-03T13:29:49.493Z,6.78
2023-02-03T13:31:24.189Z,6.76
2023-02-03T13:33:11.211Z,6.72
2023-02-03T13:35:18.665Z,6.81
2023-02-03T13:37:16.765Z,6.79
2023-02-03T13:39:07.012Z,6.83
2023-02-03T13:40:57.282Z,6.89
2023-02-03T13:42:35.141Z,6.84
2023-02-03T13:44:16.661Z,6.81
2023-02-03T13:45:51.870Z,6.82
2023-02-03T13:47:32.026Z,6.84
2023-02-03T13:49:06.399Z,6.84
2023-02-03T13:50:39.740Z,6.96
2023-02-03T13:52:28.389Z,6.86
2023-02-03T13:54:03.223Z,6.83
2023-02-03T13:55:39.644Z,6.88
2023-02-03T13:57:24.812Z,6.93
2023-02-03T13:59:14.506Z,6.98
2023-02-03T14:00:46.018Z,6.88
2023-02-03T14:02:23.439Z,6.83
2023-02-03T14:03:56.369Z,6.95
2023-02-03T14:05:49.557Z,7.13
2023-02-03T14:07:24.977Z,7.25
2023-02-03T14:09:00.217Z,7.18
2023-02-03T14:10:32.421Z,7.20
2023-02-03T14:12:13.483Z,7.23
2023-02-03T14:13:45.308Z,7.33
2023-02-03T14:15:26.314Z,7.28
2023-02-03T14:16:58.184Z,7.27
2023-02-03T14:18:43.673Z,7.30
2023-02-03T14:20:27.728Z,7.29
2023-02-03T14:22:02.727Z,7.19
2023-02-03T14:23:41.759Z,7.21
2023-02-03T14:25:18.216Z,7.25
2023-02-03T14:26:53.076Z,7.25
2023-02-03T14:28:39.381Z,7.27
2023-02-03T14:30:12.313Z,7.29
2023-02-03T14:32:08.571Z,7.35
2023-02-03T14:33:49.671Z,7.29
2023-02-03T14:35:30.681Z,7.34
2023-02-03T14:37:14.334Z,7.25
2023-02-03T14:38:46.330Z,7.18
2023-02-03T14:40:55.674Z,7.22
2023-02-03T14:42:30.275Z,7.25
2023-02-03T14:44:23.415Z,7.22
2023-02-03T14:46:26.580Z,7.15
2023-02-03T14:48:40.330Z,7.22
2023-02-03T14:50:39.262Z,7.19
2023-02-03T14:52:19.784Z,7.15
2023-02-03T14:54:09.861Z,7.23
2023-02-03T14:55:41.683Z,7.27
2023-02-03T14:57:31.994Z,7.17
2023-02-03T14:59:10.240Z,7.22
2023-02-03T15:00:42.064Z,7.19
2023-02-03T15:02:27.218Z,7.26
2023-02-03T15:04:28.504Z,7.15
2023-02-03T15:06:03.441Z,7.15
2023-02-03T15:07:37.402Z,7.20
2023-02-03T15:09:27.468Z,7.10
2023-02-03T15:11:00.479Z,6.92
2023-02-03T15:12:38.954Z,6.90
2023-02-03T15:14:20.673Z,6.85
2023-02-03T15:16:06.001Z,6.87
2023-02-03T15:17:38.821Z,6.90
2023-02-03T15:19:18.882Z,6.86
2023-02-03T15:20:54.416Z,6.80
2023-02-03T15:22:29.072Z,6.76
2023-02-03T15:24:00.799Z,6.72
2023-02-03T15:25:33.157Z,6.72
2023-02-03T15:27:04.805Z,6.74
2023-02-03T15:28:36.652Z,6.86
2023-02-03T15:30:19.119Z,6.80
2023-02-03T15:32:08.776Z,6.63
2023-02-03T15:33:44.256Z,6.67
2023-02-03T15:35:19.670Z,6.83
2023-02-03T15:36:56.469Z,6.78
2023-02-03T15:38:35.712Z,6.68
2023-02-03T15:40:23.550Z,6.68
2023-02-03T15:41:58.345Z,6.70
2023-02-03T15:43:42.054Z,6.58
2023-02-03T15:45:39.988Z,6.60
2023-02-03T15:47:25.270Z,6.64
2023-02-03T15:49:14.013Z,6.58
2023-02-03T15:50:54.684Z,6.59
2023-02-03T15:52:28.204Z,6.50
2023-02-03T15:54:06.510Z,6.60
2023-02-03T15:55:43.852Z,6.55
2023-02-03T15:57:23.940Z,6.48
2023-02-03T15:58:58.725Z,6.45
2023-02-03T16:00:38.358Z,6.57
2023-02-03T16:02:31.721Z,6.61
2023-02-03T16:04:11.445Z,6.52
2023-02-03T16:05:48.722Z,6.55
2023-02-03T16:07:25.455Z,6.59
2023-02-03T16:08:59.613Z,6.65
2023-02-03T16:10:33.653Z,6.58
2023-02-03T16:12:19.071Z,6.53
2023-02-03T16:13:50.895Z,6.46
2023-02-03T16:15:24.954Z,6.37
2023-02-03T16:17:05.073Z,6.42
2023-02-03T16:18:37.799Z,6.44
2023-02-03T16:20:12.203Z,6.46
2023-02-03T16:21:49.820Z,6.48
2023-02-03T16:23:27.495Z,6.41
2023-02-03T16:25:13.825Z,6.56
2023-02-03T16:26:45.539Z,6.57
2023-02-03T16:28:36.522Z,6.53
2023-02-03T16:30:26.731Z,6.45
2023-02-03T16:32:17.666Z,6.43
2023-02-03T16:34:09.245Z,6.48
2023-02-03T16:35:59.616Z,6.45
2023-02-03T16:37:52.631Z,6.37
2023-02-03T16:39:45.379Z,6.41
2023-02-03T16:41:36.711Z,6.41
2023-02-03T16:43:32.397Z,6.39
2023-02-03T16:45:30.198Z,6.30
2023-02-03T16:47:21.678Z,6.31
2023-02-03T16:49:11.909Z,6.35
2023-02-03T16:50:59.281Z,6.27
2023-02-03T16:52:32.184Z,6.22
2023-02-03T16:54:03.918Z,6.33
2023-02-03T16:55:35.588Z,6.29
2023-02-03T16:57:07.311Z,6.34
2023-02-03T16:58:39.185Z,6.30
2023-02-03T17:00:13.154Z,6.27
2023-02-03T17:01:45.007Z,6.26
2023-02-03T17:03:20.277Z,6.23
2023-02-03T17:04:51.980Z,6.24
2023-02-03T17:06:23.784Z,6.32
2023-02-03T17:07:55.611Z,6.26
2023-02-03T17:09:27.395Z,6.20
2023-02-03T17:11:22.243Z,6.15
2023-02-03T17:12:54.049Z,6.20
2023-02-03T17:14:26.996Z,6.30
2023-02-03T17:15:58.717Z,6.36
2023-02-03T17:17:30.782Z,6.31
2023-02-03T17:20:46.206Z,6.31
2023-02-03T17:22:17.952Z,6.32
2023-02-03T17:23:50.051Z,6.21
2023-02-03T17:25:22.201Z,6.24
2023-02-03T17:26:54.818Z,6.31
2023-02-03T17:28:26.878Z,6.30
2023-02-03T17:29:58.712Z,6.26
2023-02-03T17:31:31.402Z,6.34
2023-02-03T17:33:12.065Z,6.31
2023-02-03T17:34:44.618Z,6.27
2023-02-03T17:36:19.605Z,6.34
2023-02-03T17:37:51.444Z,6.29
2023-02-03T17:54:06.199Z,6.31
2023-02-03T17:55:37.946Z,6.36
2023-02-03T17:57:09.757Z,6.25
2023-02-03T17:58:42.153Z,6.24
2023-02-03T18:00:14.165Z,6.16
2023-02-03T18:01:46.851Z,6.13
2023-02-03T18:03:18.501Z,6.13
2023-02-03T18:04:50.547Z,6.10
2023-02-03T18:06:24.140Z,6.18
2023-02-03T18:07:56.218Z,6.19
2023-02-03T18:09:27.847Z,6.21
2023-02-03T18:10:59.615Z,6.23
2023-02-03T18:12:31.362Z,6.20
2023-02-03T18:14:05.399Z,6.12
2023-02-03T18:15:38.455Z,6.05
2023-02-03T18:17:10.154Z,6.02
2023-02-03T18:18:43.386Z,6.02
2023-02-03T18:20:15.136Z,6.11
2023-02-03T18:21:46.884Z,6.16
2023-02-03T18:23:20.044Z,6.11
2023-02-03T18:24:52.289Z,6.08
2023-02-03T18:26:23.969Z,6.14
2023-02-03T18:27:55.883Z,6.19
2023-02-03T18:29:28.174Z,6.13
2023-02-03T18:31:04.283Z,6.01
2023-02-03T18:32:35.921Z,6.08
2023-02-03T18:34:07.654Z,6.02
2023-02-03T18:35:39.579Z,6.02
2023-02-03T18:37:12.079Z,6.01
2023-02-03T18:38:45.791Z,6.08
2023-02-03T18:40:17.655Z,6.03
2023-02-03T18:41:49.368Z,5.98
2023-02-03T18:43:21.929Z,6.00
2023-02-03T18:44:53.618Z,5.96
2023-02-03T18:46:30.702Z,5.92
2023-02-03T18:48:02.601Z,5.87
2023-02-03T18:49:36.093Z,5.96
2023-02-03T18:51:13.531Z,5.93
2023-02-03T18:52:45.444Z,5.93
2023-02-03T18:54:17.167Z,6.01
2023-02-03T18:55:48.833Z,5.97
2023-02-03T18:57:22.509Z,5.90
2023-02-03T18:58:55.115Z,5.82
2023-02-03T19:00:27.686Z,5.93
2023-02-03T19:01:59.597Z,6.00
2023-02-03T19:03:31.308Z,6.04
2023-02-03T19:05:03.062Z,6.15
2023-02-03T19:06:35.965Z,6.11
2023-02-03T19:08:08.654Z,6.04
2023-02-03T19:09:40.992Z,6.13
2023-02-03T19:11:13.699Z,6.19
2023-02-03T19:12:45.778Z,6.05
2023-02-03T19:14:17.742Z,6.16
2023-02-03T19:15:51.416Z,6.17
2023-02-03T19:17:23.651Z,6.18
2023-02-03T19:18:55.421Z,6.12
2023-02-03T19:20:27.358Z,6.22
2023-02-03T19:21:59.214Z,6.31
2023-02-03T19:23:30.896Z,6.31
2023-02-03T19:25:02.727Z,6.27
2023-02-03T19:26:34.780Z,6.24
2023-02-03T19:28:14.270Z,6.23
2023-02-03T19:29:49.431Z,6.24
2023-02-03T19:31:21.294Z,6.19
2023-02-03T19:32:53.185Z,6.11
2023-02-03T19:34:26.910Z,6.15
2023-02-03T19:35:59.368Z,6.19
2023-02-03T19:37:31.095Z,6.12
2023-02-03T19:39:02.876Z,6.17
2023-02-03T19:40:35.283Z,6.21
2023-02-03T19:42:07.134Z,6.08
2023-02-03T19:43:40.150Z,6.18
2023-02-03T19:45:12.814Z,6.07
2023-02-03T19:46:44.538Z,6.01
2023-02-03T19:48:16.537Z,5.99
2023-02-03T19:49:48.256Z,6.15
2023-02-03T19:51:20.156Z,6.06
2023-02-03T19:52:51.853Z,6.00
2023-02-03T19:54:23.619Z,6.07
2023-02-03T19:55:55.425Z,6.01
2023-02-03T19:57:27.168Z,5.98
2023-02-03T19:58:59.151Z,5.97
2023-02-03T20:00:30.979Z,5.96
2023-02-03T20:02:13.697Z,6.01
2023-02-03T20:03:46.083Z,6.01
2023-02-03T20:05:18.040Z,5.90
2023-02-03T20:06:49.726Z,6.07
2023-02-03T20:08:21.585Z,6.02
2023-02-03T20:09:53.650Z,6.09
2023-02-03T20:11:25.368Z,6.13
2023-02-03T20:12:57.229Z,6.14
2023-02-03T20:14:29.111Z,6.13
2023-02-03T20:16:01.106Z,5.99
2023-02-03T20:17:32.839Z,5.97
2023-02-03T20:19:04.598Z,5.93
2023-02-03T20:20:36.358Z,5.95
2023-02-03T20:22:08.010Z,6.01
2023-02-03T20:23:39.860Z,6.00
2023-02-03T20:25:11.616Z,6.03
2023-02-03T20:26:43.327Z,6.01
2023-02-03T20:28:15.006Z,6.08
2023-02-03T20:29:48.752Z,6.11
2023-02-03T20:31:21.802Z,6.01
2023-02-03T20:32:54.745Z,6.10
2023-02-03T20:34:27.505Z,6.04
2023-02-03T20:35:59.375Z,6.00
2023-02-03T20:37:31.089Z,5.93
2023-02-03T20:39:02.978Z,5.76
2023-02-03T20:40:35.210Z,5.86
2023-02-03T20:42:14.626Z,5.76
2023-02-03T20:43:46.651Z,5.79
2023-02-03T20:45:20.604Z,5.65
2023-02-03T20:46:52.952Z,5.64
2023-02-03T20:48:26.869Z,5.65
2023-02-03T20:49:58.592Z,5.64
2023-02-03T20:51:30.267Z,5.66
2023-02-03T20:53:01.967Z,5.85
2023-02-03T20:54:33.649Z,5.74
2023-02-03T20:56:13.052Z,5.72
2023-02-03T20:57:45.660Z,5.67
2023-02-03T20:59:19.307Z,5.68
2023-02-03T21:00:51.845Z,5.62
2023-02-03T21:02:48.165Z,5.74
2023-02-03T21:04:39.910Z,5.58
2023-02-03T21:06:19.570Z,5.62
2023-02-03T21:07:51.836Z,5.70
2023-02-03T21:09:24.367Z,5.65
2023-02-03T21:10:56.097Z,5.78
2023-02-03T21:12:28.732Z,5.68
2023-02-03T21:14:02.428Z,5.63
2023-02-03T21:15:34.178Z,5.67
2023-02-03T21:17:18.696Z,5.67
2023-02-03T21:19:02.657Z,5.60
2023-02-03T21:20:34.348Z,5.61
2023-02-03T21:22:18.142Z,5.72
2023-02-03T21:23:49.788Z,5.71
2023-02-03T21:25:28.380Z,5.73
2023-02-03T21:27:01.135Z,5.73
2023-02-03T21:28:32.821Z,5.81
2023-02-03T21:30:30.771Z,5.84
2023-02-03T21:32:03.619Z,5.79
2023-02-03T21:33:43.719Z,5.66
2023-02-03T21:35:26.464Z,5.70
2023-02-03T21:37:07.816Z,5.76
2023-02-03T21:38:39.658Z,5.81
2023-02-03T21:40:21.376Z,5.74
2023-02-03T21:41:53.153Z,5.75
2023-02-03T21:43:24.835Z,5.91
2023-02-03T21:44:57.094Z,5.82